createdAt,value
2018-03-02T00:01:59.812Z,29.73
2018-03-02T00:04:27.950Z,28.90
2018-03-02T00:06:56.114Z,29.25
2018-03-02T00:09:25.019Z,28.48
2018-03-02T00:11:53.179Z,29.33
2018-03-02T00:14:21.297Z,29.92
2018-03-02T00:16:49.436Z,30.05
2018-03-02T00:19:17.561Z,29.58
2018-03-02T00:21:45.733Z,29.90
2018-03-02T00:24:13.872Z,30.15
2018-03-02T00:26:42.295Z,31.83
2018-03-02T00:29:10.409Z,29.65
2018-03-02T00:31:38.662Z,29.33
2018-03-02T00:34:06.789Z,30.37
2018-03-02T00:36:35.089Z,30.90
2018-03-02T00:39:03.977Z,30.37
2018-03-02T00:41:32.885Z,27.45
2018-03-02T00:44:01.151Z,29.77
2018-03-02T00:46:30.379Z,29.70
2018-03-02T00:48:58.631Z,30.30
2018-03-02T00:51:26.904Z,30.17
2018-03-02T00:53:55.042Z,30.02
2018-03-02T00:56:23.173Z,31.33
2018-03-02T00:58:51.297Z,30.95
2018-03-02T01:01:20.205Z,29.98
2018-03-02T01:03:48.336Z,29.77
2018-03-02T01:06:16.459Z,29.98
2018-03-02T01:08:44.610Z,30.23
2018-03-02T01:11:13.500Z,30.40
2018-03-02T01:13:42.411Z,30.80
2018-03-02T01:16:10.558Z,30.33
2018-03-02T01:18:39.457Z,31.55
2018-03-02T01:21:07.583Z,31.15
2018-03-02T01:23:35.726Z,31.90
2018-03-02T01:26:03.843Z,32.05
2018-03-02T01:28:31.987Z,29.25
2018-03-02T01:31:00.105Z,29.40
2018-03-02T01:33:29.024Z,30.52
2018-03-02T01:35:57.147Z,30.70
2018-03-02T01:38:25.286Z,31.83
2018-03-02T01:40:53.485Z,30.95
2018-03-02T01:43:21.649Z,29.98
2018-03-02T01:45:49.761Z,29.37
2018-03-02T01:48:18.668Z,30.98
2018-03-02T01:50:46.834Z,29.87
2018-03-02T01:53:14.968Z,27.98
2018-03-02T01:55:43.099Z,31.05
2018-03-02T01:58:11.219Z,32.10
2018-03-02T02:00:40.122Z,30.02
2018-03-02T02:03:09.010Z,30.30
2018-03-02T02:05:37.911Z,29.73
2018-03-02T02:08:06.030Z,30.23
2018-03-02T02:10:34.218Z,29.23
2018-03-02T02:13:02.341Z,30.23
2018-03-02T02:15:30.477Z,31.67
2018-03-02T02:17:59.380Z,30.42
2018-03-02T02:20:27.529Z,30.10
2018-03-02T02:22:55.660Z,29.67
2018-03-02T02:25:23.788Z,31.55
2018-03-02T02:27:52.678Z,30.80
2018-03-02T02:30:21.921Z,31.67
2018-03-02T02:32:50.033Z,30.60
2018-03-02T02:35:18.936Z,30.85
2018-03-02T02:37:47.061Z,31.77
2018-03-02T02:40:15.199Z,30.33
2018-03-02T02:42:43.325Z,30.83
2018-03-02T02:45:11.465Z,33.60
2018-03-02T02:47:39.595Z,30.30
2018-03-02T02:50:08.490Z,32.58
2018-03-02T02:52:36.631Z,32.08
2018-03-02T02:55:04.782Z,31.12
2018-03-02T02:57:32.917Z,33.25
2018-03-02T03:00:01.033Z,29.55
2018-03-02T03:02:29.509Z,31.85
2018-03-02T03:04:57.619Z,32.17
2018-03-02T03:07:26.518Z,32.67
2018-03-02T03:09:54.660Z,32.45
2018-03-02T03:12:22.793Z,32.00
2018-03-02T03:14:50.923Z,32.97
2018-03-02T03:17:19.074Z,32.92
2018-03-02T03:19:47.210Z,32.50
2018-03-02T03:22:15.345Z,31.40
2018-03-02T03:24:43.477Z,35.05
2018-03-02T03:27:11.621Z,33.13
2018-03-02T03:29:39.746Z,33.17
2018-03-02T03:32:08.663Z,32.08
2018-03-02T03:34:36.784Z,33.60
2018-03-02T03:37:04.930Z,31.75
2018-03-02T03:39:33.063Z,34.40
2018-03-02T03:42:01.199Z,30.75
2018-03-02T03:44:29.329Z,31.42
2018-03-02T03:46:57.505Z,33.10
2018-03-02T03:49:25.621Z,34.42
2018-03-02T03:51:54.513Z,33.08
2018-03-02T03:54:23.421Z,34.67
2018-03-02T03:56:51.547Z,34.40
2018-03-02T03:59:19.732Z,32.60
2018-03-02T04:01:48.662Z,32.63
2018-03-02T04:04:16.809Z,31.55
2018-03-02T04:06:44.981Z,32.92
2018-03-02T04:09:13.118Z,35.20
2018-03-02T04:11:41.314Z,31.98
2018-03-02T04:14:09.458Z,34.65
2018-03-02T04:16:37.576Z,33.85
2018-03-02T04:19:06.476Z,34.28
2018-03-02T04:21:34.601Z,33.15
2018-03-02T04:24:02.750Z,34.78
2018-03-02T04:26:30.876Z,33.35
2018-03-02T04:28:59.784Z,34.30
2018-03-02T04:31:27.904Z,34.70
2018-03-02T04:33:56.052Z,34.05
2018-03-02T04:36:24.183Z,35.22
2018-03-02T04:38:52.308Z,32.67
2018-03-02T04:41:20.427Z,33.85
2018-03-02T04:43:49.325Z,36.50
2018-03-02T04:46:17.459Z,40.08
2018-03-02T04:48:45.610Z,34.83
2018-03-02T04:51:13.734Z,35.08
2018-03-02T04:53:42.631Z,34.60
2018-03-02T04:56:10.773Z,34.15
2018-03-02T04:58:38.900Z,32.45
2018-03-02T05:01:07.038Z,33.60
2018-03-02T05:03:35.924Z,31.77
2018-03-02T05:06:04.840Z,33.88
2018-03-02T05:08:32.964Z,33.92
2018-03-02T05:11:01.100Z,34.53
2018-03-02T05:13:29.226Z,34.03
2018-03-02T05:15:58.148Z,34.17
2018-03-02T05:18:26.265Z,37.88
2018-03-02T05:20:54.407Z,34.20
2018-03-02T05:23:22.533Z,33.25
2018-03-02T05:25:50.688Z,34.40
2018-03-02T05:28:19.569Z,33.33
2018-03-02T05:30:47.708Z,34.47
2018-03-02T05:33:15.838Z,36.58
2018-03-02T05:35:44.742Z,32.08
2018-03-02T05:38:12.865Z,33.08
2018-03-02T05:40:41.021Z,36.65
2018-03-02T05:43:09.148Z,34.85
2018-03-02T05:45:37.284Z,34.67
2018-03-02T05:48:05.402Z,32.30
2018-03-02T05:50:33.532Z,33.38
2018-03-02T05:53:02.489Z,34.65
2018-03-02T05:55:30.629Z,35.90
2018-03-02T05:57:58.757Z,33.72
2018-03-02T06:00:26.895Z,34.67
2018-03-02T06:02:55.025Z,38.08
2018-03-02T06:05:23.928Z,35.38
2018-03-02T06:07:52.065Z,33.95
2018-03-02T06:10:20.195Z,37.78
2018-03-02T06:12:48.326Z,34.88
2018-03-02T06:15:17.248Z,33.50
2018-03-02T06:17:45.388Z,34.50
2018-03-02T06:20:14.280Z,35.08
2018-03-02T06:22:43.184Z,34.63
2018-03-02T06:25:11.304Z,34.80
2018-03-02T06:27:39.449Z,33.83
2018-03-02T06:30:07.573Z,33.53
2018-03-02T06:32:35.734Z,33.42
2018-03-02T06:35:03.876Z,36.15
2018-03-02T06:37:32.126Z,34.45
2018-03-02T06:40:00.251Z,33.72
2018-03-02T06:42:29.158Z,33.60
2018-03-02T06:44:57.322Z,31.55
2018-03-02T06:47:25.453Z,31.90
2018-03-02T06:49:53.619Z,34.45
2018-03-02T06:52:21.966Z,34.22
2018-03-02T06:54:50.125Z,33.45
2018-03-02T06:57:18.505Z,31.75
2018-03-02T06:59:46.693Z,33.50
2018-03-02T07:02:14.876Z,32.42
2018-03-02T07:04:43.020Z,33.65
2018-03-02T07:07:11.146Z,30.55
2018-03-02T07:09:39.284Z,34.67
2018-03-02T07:12:07.428Z,37.78
2018-03-02T07:14:35.573Z,36.28
2018-03-02T07:17:03.696Z,33.35
2018-03-02T07:19:31.884Z,33.25
2018-03-02T07:22:00.010Z,31.42
2018-03-02T07:24:28.910Z,31.73
2018-03-02T07:26:57.036Z,31.37
2018-03-02T07:29:25.192Z,32.50
2018-03-02T07:31:53.305Z,32.58
2018-03-02T07:34:22.204Z,30.33
2018-03-02T07:36:51.085Z,31.52
2018-03-02T07:39:19.999Z,32.90
2018-03-02T07:41:48.140Z,33.25
2018-03-02T07:44:17.079Z,32.47
2018-03-02T07:46:45.929Z,31.70
2018-03-02T07:49:14.835Z,32.90
2018-03-02T07:51:42.967Z,32.22
2018-03-02T07:54:11.093Z,30.70
2018-03-02T07:56:39.237Z,30.55
2018-03-02T07:59:07.353Z,33.60
2018-03-02T08:01:35.487Z,31.00
2018-03-02T08:04:03.609Z,31.30
2018-03-02T08:06:31.747Z,31.17
2018-03-02T08:08:59.892Z,36.13
2018-03-02T08:11:28.060Z,32.28
2018-03-02T08:13:56.181Z,32.97
2018-03-02T08:16:24.409Z,31.17
2018-03-02T08:18:52.536Z,33.25
2018-03-02T08:21:20.685Z,30.90
2018-03-02T08:23:48.852Z,31.80
2018-03-02T08:26:16.999Z,31.40
2018-03-02T08:28:45.117Z,31.23
2018-03-02T08:31:13.244Z,33.55
2018-03-02T08:33:41.362Z,31.42
2018-03-02T08:36:09.502Z,31.98
2018-03-02T08:38:37.620Z,32.67
2018-03-02T08:41:06.504Z,33.45
2018-03-02T08:43:34.745Z,33.08
2018-03-02T08:46:02.895Z,32.03
2018-03-02T08:48:31.035Z,33.85
2018-03-02T08:50:59.926Z,32.15
2018-03-02T08:53:28.202Z,28.55
2018-03-02T08:55:57.086Z,28.70
2018-03-02T08:58:25.357Z,32.83
2018-03-02T09:00:53.664Z,34.45
2018-03-02T09:03:22.038Z,31.95
2018-03-02T09:05:50.145Z,29.75
2018-03-02T09:08:18.285Z,30.12
2018-03-02T09:10:46.437Z,31.05
2018-03-02T09:13:15.361Z,30.37
2018-03-02T09:15:43.496Z,34.17
2018-03-02T09:18:12.405Z,31.80
2018-03-02T09:20:40.521Z,30.10
2018-03-02T09:23:08.661Z,33.30
2018-03-02T09:25:36.787Z,30.65
2018-03-02T09:28:05.666Z,31.58
2018-03-02T09:30:33.814Z,30.12
2018-03-02T09:33:01.945Z,31.35
2018-03-02T09:35:30.088Z,32.17
2018-03-02T09:37:58.960Z,31.48
2018-03-02T09:40:27.869Z,31.70
2018-03-02T09:42:56.876Z,30.70
2018-03-02T09:45:25.073Z,30.17
2018-03-02T09:47:53.238Z,32.25
2018-03-02T09:50:21.397Z,32.28
2018-03-02T09:52:49.587Z,31.08
2018-03-02T09:55:17.700Z,30.90
2018-03-02T09:57:45.823Z,30.52
2018-03-02T10:00:14.009Z,31.67
2018-03-02T10:02:42.171Z,30.85
2018-03-02T10:05:10.352Z,31.20
2018-03-02T10:07:38.470Z,32.35
2018-03-02T10:10:07.381Z,30.90
2018-03-02T10:12:35.493Z,30.02
2018-03-02T10:15:03.628Z,29.35
2018-03-02T10:17:31.756Z,31.55
2018-03-02T10:19:59.914Z,31.08
2018-03-02T10:22:28.045Z,30.33
2018-03-02T10:24:56.182Z,31.48
2018-03-02T10:27:25.098Z,30.73
2018-03-02T10:29:53.234Z,31.08
2018-03-02T10:32:21.379Z,30.20
2018-03-02T10:34:49.501Z,29.80
2018-03-02T10:37:17.632Z,30.95
2018-03-02T10:39:45.782Z,30.25
2018-03-02T10:42:13.911Z,29.23
2018-03-02T10:44:42.820Z,30.65
2018-03-02T10:47:10.980Z,27.62
2018-03-02T10:49:41.058Z,29.80
2018-03-02T10:52:09.279Z,29.83
2018-03-02T10:54:37.405Z,30.70
2018-03-02T10:57:05.530Z,29.00
2018-03-02T10:59:33.670Z,28.05
2018-03-02T11:02:07.478Z,28.77
2018-03-02T11:04:35.621Z,28.83
2018-03-02T11:07:03.828Z,31.92
2018-03-02T11:09:31.998Z,31.08
2018-03-02T11:12:00.286Z,29.55
2018-03-02T11:14:28.433Z,27.17
2018-03-02T11:16:56.560Z,27.48
2018-03-02T11:19:25.064Z,30.62
2018-03-02T11:21:53.257Z,29.60
2018-03-02T11:24:22.165Z,29.67
2018-03-02T11:26:50.301Z,30.12
2018-03-02T11:29:18.549Z,29.55
2018-03-02T11:31:46.682Z,29.33
2018-03-02T11:34:14.837Z,29.50
2018-03-02T11:36:42.973Z,30.70
2018-03-02T11:39:11.193Z,32.47
2018-03-02T11:41:39.381Z,30.50
2018-03-02T11:44:07.504Z,29.30
2018-03-02T11:46:35.653Z,27.65
2018-03-02T11:49:03.761Z,29.95
2018-03-02T11:51:32.008Z,29.35
2018-03-02T11:54:00.203Z,31.50
2018-03-02T11:56:28.345Z,35.08
2018-03-02T11:58:56.471Z,30.48
2018-03-02T12:01:24.621Z,38.47
2018-03-02T12:03:53.512Z,32.65
2018-03-02T12:06:22.435Z,29.60
2018-03-02T12:08:50.552Z,31.92
2018-03-02T12:11:18.705Z,30.35
2018-03-02T12:13:46.825Z,30.62
2018-03-02T12:16:15.112Z,29.10
2018-03-02T12:18:43.242Z,30.92
2018-03-02T12:21:11.457Z,28.75
2018-03-02T12:23:39.578Z,30.45
2018-03-02T12:26:07.714Z,29.52
2018-03-02T12:28:35.935Z,29.37
2018-03-02T12:31:04.085Z,32.25
2018-03-02T12:33:32.202Z,30.05
2018-03-02T12:36:01.750Z,29.15
2018-03-02T12:38:30.868Z,33.15
2018-03-02T12:40:59.011Z,33.22
2018-03-02T12:43:27.504Z,34.35
2018-03-02T12:45:55.677Z,29.42
2018-03-02T12:48:23.803Z,30.70
2018-03-02T12:50:52.040Z,28.60
2018-03-02T12:53:20.940Z,28.87
2018-03-02T12:55:49.864Z,30.93
2018-03-02T12:58:17.994Z,29.57
2018-03-02T13:00:46.914Z,31.90
2018-03-02T13:03:15.045Z,29.00
2018-03-02T13:05:43.181Z,30.87
2018-03-02T13:08:11.724Z,29.67
2018-03-02T13:10:40.705Z,30.27
2018-03-02T13:13:09.529Z,31.25
2018-03-02T13:15:37.666Z,27.92
2018-03-02T13:18:06.548Z,29.42
2018-03-02T13:20:35.491Z,29.75
2018-03-02T13:23:03.627Z,28.20
2018-03-02T13:25:31.756Z,29.65
2018-03-02T13:28:11.956Z,29.75
2018-03-02T13:30:40.132Z,30.67
2018-03-02T13:33:20.188Z,28.25
2018-03-02T13:35:48.309Z,29.00
2018-03-02T13:38:16.439Z,27.65
2018-03-02T13:40:56.580Z,27.65
2018-03-02T13:43:24.705Z,29.00
2018-03-02T13:45:53.449Z,28.48
2018-03-02T13:48:42.337Z,27.62
2018-03-02T13:51:10.466Z,28.02
2018-03-02T13:53:38.616Z,29.25
2018-03-02T13:56:07.620Z,29.23
2018-03-02T13:58:36.504Z,29.27
2018-03-02T14:04:16.011Z,28.90
2018-03-02T14:06:45.425Z,28.52
2018-03-02T14:09:13.557Z,28.85
2018-03-02T14:11:41.691Z,27.62
2018-03-02T14:14:10.581Z,30.52
2018-03-02T14:16:39.477Z,30.62
2018-03-02T14:19:07.614Z,28.80
2018-03-02T14:21:35.734Z,27.55
2018-03-02T14:24:03.888Z,29.37
2018-03-02T14:26:32.005Z,27.37
2018-03-02T14:29:00.142Z,30.37
2018-03-02T14:31:28.261Z,30.48
2018-03-02T14:33:58.261Z,30.90
2018-03-02T14:36:26.385Z,33.17
2018-03-02T14:38:54.541Z,33.17
2018-03-02T14:41:22.707Z,27.58
2018-03-02T14:43:50.838Z,29.90
2018-03-02T14:46:19.018Z,30.65
2018-03-02T14:48:47.149Z,31.25
2018-03-02T14:51:15.284Z,29.85
2018-03-02T14:53:43.430Z,30.15
2018-03-02T14:56:13.013Z,28.10
2018-03-02T14:58:41.109Z,27.27
2018-03-02T15:01:09.277Z,29.55
2018-03-02T15:03:37.473Z,28.35
2018-03-02T15:06:05.667Z,30.40
2018-03-02T15:08:33.776Z,29.00
2018-03-02T15:11:02.000Z,30.20
2018-03-02T15:13:30.129Z,32.83
2018-03-02T15:15:58.263Z,30.80
2018-03-02T15:18:26.372Z,30.73
2018-03-02T15:20:54.506Z,29.65
2018-03-02T15:23:22.683Z,27.95
2018-03-02T15:25:50.953Z,30.23
2018-03-02T15:28:19.097Z,28.30
2018-03-02T15:30:47.233Z,30.33
2018-03-02T15:33:15.394Z,28.50
2018-03-02T15:35:44.251Z,30.65
2018-03-02T15:38:12.365Z,29.50
2018-03-02T15:40:40.497Z,29.67
2018-03-02T15:43:08.616Z,31.35
2018-03-02T15:45:36.742Z,31.35
2018-03-02T15:48:04.889Z,28.25
2018-03-02T15:50:33.805Z,30.27
2018-03-02T15:53:01.929Z,29.87
2018-03-02T15:55:30.070Z,29.85
2018-03-02T15:57:58.200Z,33.63
2018-03-02T16:00:26.325Z,30.92
2018-03-02T16:02:54.462Z,31.52
2018-03-02T16:05:22.592Z,32.42
2018-03-02T16:07:50.724Z,31.15
2018-03-02T16:10:19.658Z,30.50
2018-03-02T16:12:48.634Z,32.80
2018-03-02T16:15:16.755Z,31.45
2018-03-02T16:17:44.889Z,31.55
2018-03-02T16:20:13.699Z,31.55
2018-03-02T16:22:41.841Z,30.17
2018-03-02T16:25:09.966Z,31.92
2018-03-02T16:27:38.143Z,31.87
2018-03-02T16:30:06.260Z,32.47
2018-03-02T16:32:34.420Z,34.08
2018-03-02T16:35:02.543Z,34.47
2018-03-02T16:37:30.683Z,34.95
2018-03-02T16:39:59.568Z,34.97
2018-03-02T16:42:27.700Z,34.40
2018-03-02T16:44:56.592Z,33.78
2018-03-02T16:47:24.745Z,35.22
2018-03-02T16:49:52.881Z,36.90
2018-03-02T16:52:21.777Z,33.08
2018-03-02T16:54:50.677Z,29.60
2018-03-02T16:57:20.374Z,33.53
2018-03-02T16:59:48.538Z,32.90
2018-03-02T17:02:16.939Z,31.73
2018-03-02T17:04:45.079Z,31.77
2018-03-02T17:07:13.204Z,32.00
2018-03-02T17:09:41.340Z,34.70
2018-03-02T17:12:10.246Z,33.33
2018-03-02T17:14:38.380Z,34.63
2018-03-02T17:17:06.505Z,34.58
2018-03-02T17:19:34.639Z,35.80
2018-03-02T17:22:03.528Z,33.53
2018-03-02T17:24:32.434Z,33.47
2018-03-02T17:27:00.564Z,35.85
2018-03-02T17:29:28.700Z,33.53
2018-03-02T17:31:56.835Z,38.95
2018-03-02T17:34:25.742Z,136.88
2018-03-02T17:36:53.872Z,49.85
2018-03-02T17:39:22.003Z,34.08
2018-03-02T17:41:50.125Z,33.40
2018-03-02T17:44:19.050Z,32.72
2018-03-02T17:46:47.168Z,34.65
2018-03-02T17:49:15.313Z,33.75
2018-03-02T17:51:43.439Z,33.38
2018-03-02T17:54:13.125Z,32.75
2018-03-02T17:56:41.268Z,32.63
2018-03-02T17:59:09.414Z,33.40
2018-03-02T18:01:37.541Z,33.58
2018-03-02T18:04:05.681Z,33.97
2018-03-02T18:06:33.824Z,34.60
2018-03-02T18:09:01.943Z,33.42
2018-03-02T18:11:30.101Z,32.75
2018-03-02T18:13:58.226Z,31.90
2018-03-02T18:16:26.395Z,32.20
2018-03-02T18:18:55.296Z,35.00
2018-03-02T18:21:23.435Z,34.88
2018-03-02T18:23:51.572Z,37.25
2018-03-02T18:26:20.597Z,34.28
2018-03-02T18:28:48.728Z,33.90
2018-03-02T18:31:16.864Z,36.10
2018-03-02T18:33:45.758Z,36.83
2018-03-02T18:36:13.896Z,39.45
2018-03-02T18:38:42.033Z,37.70
2018-03-02T18:41:10.161Z,37.05
2018-03-02T18:43:39.062Z,35.28
2018-03-02T18:46:07.197Z,32.55
2018-03-02T18:48:35.332Z,38.30
2018-03-02T18:51:03.463Z,40.25
2018-03-02T18:53:32.364Z,35.58
2018-03-02T18:56:00.524Z,36.92
2018-03-02T18:58:29.437Z,34.65
2018-03-02T19:00:57.561Z,35.17
2018-03-02T19:03:25.722Z,34.75
2018-03-02T19:05:53.849Z,32.65
2018-03-02T19:08:22.067Z,34.60
2018-03-02T19:10:50.183Z,32.03
2018-03-02T19:13:19.081Z,35.08
2018-03-02T19:15:47.204Z,33.95
2018-03-02T19:18:15.346Z,34.05
2018-03-02T19:20:43.479Z,35.88
2018-03-02T19:23:12.405Z,37.50
2018-03-02T19:25:40.525Z,36.35
2018-03-02T19:28:08.662Z,35.80
2018-03-02T19:30:36.781Z,36.15
2018-03-02T19:33:05.693Z,32.55
2018-03-02T19:35:33.818Z,32.78
2018-03-02T19:38:02.297Z,37.38
2018-03-02T19:40:31.209Z,36.53
2018-03-02T19:43:00.113Z,36.45
2018-03-02T19:45:28.244Z,35.45
2018-03-02T19:47:56.375Z,34.72
2018-03-02T19:50:24.516Z,35.65
2018-03-02T19:52:52.666Z,34.15
2018-03-02T19:55:21.832Z,35.63
2018-03-02T19:57:50.792Z,33.17
2018-03-02T20:00:19.785Z,36.55
2018-03-02T20:02:48.165Z,33.50
2018-03-02T20:05:16.288Z,33.83
2018-03-02T20:07:44.428Z,36.30
2018-03-02T20:10:14.047Z,36.40
2018-03-02T20:12:44.230Z,37.25
2018-03-02T20:15:13.676Z,35.17
2018-03-02T20:17:41.814Z,36.75
2018-03-02T20:20:11.022Z,35.50
2018-03-02T20:22:40.065Z,35.55
2018-03-02T20:25:09.454Z,35.30
2018-03-02T20:27:37.584Z,37.35
2018-03-02T20:30:07.135Z,36.15
2018-03-02T20:32:35.760Z,35.25
2018-03-02T20:35:03.920Z,34.20
2018-03-02T20:37:32.065Z,34.22
2018-03-02T20:40:04.366Z,38.58
2018-03-02T20:42:35.194Z,35.67
2018-03-02T20:45:08.747Z,36.33
2018-03-02T20:47:40.820Z,36.40
2018-03-02T20:50:15.074Z,36.28
2018-03-02T20:52:50.921Z,37.45
2018-03-02T20:55:21.150Z,37.53
2018-03-02T20:57:50.851Z,35.92
2018-03-02T21:00:25.035Z,34.95
2018-03-02T21:02:58.753Z,36.38
2018-03-02T21:05:29.752Z,36.35
2018-03-02T21:08:00.178Z,37.13
2018-03-02T21:10:33.643Z,36.70
2018-03-02T21:13:04.809Z,37.40
2018-03-02T21:15:39.361Z,36.03
2018-03-02T21:18:10.697Z,37.85
2018-03-02T21:20:41.208Z,35.80
2018-03-02T21:23:11.062Z,35.92
2018-03-02T21:25:42.097Z,35.75
2018-03-02T21:28:15.744Z,35.38
2018-03-02T21:30:47.387Z,36.28
2018-03-02T21:33:21.661Z,35.78
2018-03-02T21:35:51.440Z,37.42
2018-03-02T21:38:19.656Z,35.33
2018-03-02T21:40:47.785Z,37.63
2018-03-02T21:43:16.117Z,36.13
2018-03-02T21:45:44.252Z,37.05
2018-03-02T21:48:12.381Z,36.13
2018-03-02T21:50:40.588Z,37.72
2018-03-02T21:53:08.746Z,36.17
2018-03-02T21:55:36.864Z,39.83
2018-03-02T21:58:05.769Z,38.17
2018-03-02T22:00:33.894Z,37.00
2018-03-02T22:03:02.036Z,38.33
2018-03-02T22:05:30.163Z,39.17
2018-03-02T22:07:59.063Z,38.03
2018-03-02T22:10:27.192Z,39.22
2018-03-02T22:12:55.327Z,39.03
2018-03-02T22:15:23.446Z,39.70
2018-03-02T22:17:54.042Z,40.67
2018-03-02T22:20:23.461Z,39.97
2018-03-02T22:22:51.598Z,39.55
2018-03-02T22:25:19.745Z,42.53
2018-03-02T22:27:48.630Z,44.05
2018-03-02T22:30:17.541Z,44.03
2018-03-02T22:32:45.676Z,45.88
2018-03-02T22:35:13.848Z,45.88
2018-03-02T22:37:42.737Z,47.00
2018-03-02T22:40:10.877Z,46.17
2018-03-02T22:42:39.026Z,46.80
2018-03-02T22:45:07.169Z,52.50
2018-03-02T22:47:36.073Z,49.72
2018-03-02T22:50:04.210Z,50.53
2018-03-02T22:52:32.351Z,48.70
2018-03-02T22:55:00.481Z,51.33
2018-03-02T22:57:28.604Z,47.42
2018-03-02T22:59:56.723Z,49.92
2018-03-02T23:02:24.862Z,52.38
2018-03-02T23:04:52.984Z,50.80
2018-03-02T23:07:21.125Z,52.42
2018-03-02T23:09:50.018Z,53.17
2018-03-02T23:12:18.915Z,52.30
2018-03-02T23:14:47.038Z,52.25
2018-03-02T23:17:15.200Z,52.08
2018-03-02T23:19:43.330Z,46.35
2018-03-02T23:22:11.470Z,46.05
2018-03-02T23:24:39.594Z,49.28
2018-03-02T23:27:07.732Z,50.47
2018-03-02T23:29:36.622Z,48.17
2018-03-02T23:32:05.520Z,53.92
2018-03-02T23:34:33.669Z,46.35
2018-03-02T23:37:01.804Z,52.05
2018-03-02T23:39:29.925Z,50.17
2018-03-02T23:41:58.865Z,50.90
2018-03-02T23:44:27.822Z,53.95
2018-03-02T23:46:55.956Z,54.03
2018-03-02T23:49:24.128Z,52.67
2018-03-02T23:51:52.447Z,51.33
2018-03-02T23:54:20.713Z,52.55
2018-03-02T23:56:48.988Z,55.08
2018-03-02T23:59:17.129Z,54.25
